Time;durP1;ratioP1;P1;durP2;ratioP2;P2;SDS_P1;SDS_P2;PMS_P1;PMS_P2;Temp;Humidity;BMP_temperature;BMP_pressure;BME280_temperature;BME280_humidity;BME280_pressure;Samples;Min_cycle;Max_cycle;Signal;HPM_P1;HPM_P2
2022/05/22 00:01:36;;;;;;;5.03;3.60;;;;;;;;;;4957253;28;20190;-75
2022/05/22 00:04:02;;;;;;;5.93;3.93;;;;;;;;;;4969260;28;20245;-75
2022/05/22 00:06:29;;;;;;;5.53;4.37;;;;;;;;;;4978085;28;20190;-74
2022/05/22 00:08:55;;;;;;;8.70;4.77;;;;;;;;;;4971448;28;20266;-74
2022/05/22 00:11:22;;;;;;;7.27;4.23;;;;;;;;;;4974497;28;20275;-75
2022/05/22 00:13:48;;;;;;;5.80;4.30;;;;;;;;;;4967642;28;20186;-74
2022/05/22 00:18:59;;;;;;;7.20;3.90;;;;;;;;;;4975834;28;20218;-75
2022/05/22 00:21:25;;;;;;;4.70;3.80;;;;;;;;;;4969108;28;20191;-74
2022/05/22 00:23:51;;;;;;;7.13;4.20;;;;;;;;;;4973836;28;20281;-75
2022/05/22 00:26:16;;;;;;;5.97;4.23;;;;;;;;;;4974862;28;20613;-76
2022/05/22 00:28:42;;;;;;;6.43;3.97;;;;;;;;;;4975580;28;20191;-76
2022/05/22 00:31:08;;;;;;;4.87;3.90;;;;;;;;;;4974717;28;20243;-75
2022/05/22 00:33:34;;;;;;;7.47;4.07;;;;;;;;;;4961806;28;20194;-75
2022/05/22 00:36:00;;;;;;;5.30;3.97;;;;;;;;;;4974438;28;20209;-73
2022/05/22 00:38:26;;;;;;;4.90;3.97;;;;;;;;;;4957463;28;20652;-74
2022/05/22 00:40:53;;;;;;;10.10;4.33;;;;;;;;;;4974244;28;20668;-75
2022/05/22 00:43:38;;;;;;;4.93;3.67;;;;;;;;;;4975486;28;20238;-74
2022/05/22 00:46:05;;;;;;;4.63;3.83;;;;;;;;;;4976309;28;20210;-75
2022/05/22 00:48:31;;;;;;;6.03;3.90;;;;;;;;;;4976120;28;20187;-75
2022/05/22 00:51:00;;;;;;;5.77;3.90;;;;;;;;;;4957146;28;20197;-75
2022/05/22 00:53:26;;;;;;;4.80;3.80;;;;;;;;;;4975818;28;20594;-75
2022/05/22 00:55:52;;;;;;;5.60;4.17;;;;;;;;;;4976479;28;20222;-75
2022/05/22 00:58:20;;;;;;;5.23;4.07;;;;;;;;;;4969769;28;20198;-74
2022/05/22 01:00:46;;;;;;;6.27;4.13;;;;;;;;;;4973085;28;20211;-75
2022/05/22 01:03:27;;;;;;;7.83;4.17;;;;;;;;;;4965489;28;20252;-76
2022/05/22 01:05:56;;;;;;;4.67;4.10;;;;;;;;;;4970689;28;20208;-76
2022/05/22 01:08:22;;;;;;;7.43;4.67;;;;;;;;;;4971220;28;20230;-75
2022/05/22 01:10:56;;;;;;;5.17;3.90;;;;;;;;;;4965351;28;20629;-75
2022/05/22 01:13:26;;;;;;;5.77;4.10;;;;;;;;;;4987873;28;20601;-76
2022/05/22 01:15:52;;;;;;;4.63;4.10;;;;;;;;;;4970418;28;20210;-75
2022/05/22 01:18:18;;;;;;;5.97;4.10;;;;;;;;;;4957214;28;20337;-76
2022/05/22 01:20:50;;;;;;;5.57;4.27;;;;;;;;;;4974683;28;20207;-75
2022/05/22 01:23:16;;;;;;;5.87;3.97;;;;;;;;;;4971446;28;20197;-74
2022/05/22 01:25:42;;;;;;;5.07;4.33;;;;;;;;;;4973576;28;20183;-75
2022/05/22 01:28:09;;;;;;;5.00;3.70;;;;;;;;;;4971310;28;20673;-76
2022/05/22 01:30:34;;;;;;;7.90;4.57;;;;;;;;;;4957641;28;20202;-75
2022/05/22 01:33:00;;;;;;;8.17;4.50;;;;;;;;;;4973762;28;20636;-75
2022/05/22 01:35:28;;;;;;;5.60;4.10;;;;;;;;;;4963276;28;20197;-74
2022/05/22 01:37:55;;;;;;;6.53;4.40;;;;;;;;;;4971402;28;20667;-74
2022/05/22 01:40:21;;;;;;;4.40;3.83;;;;;;;;;;4964369;28;20217;-75
2022/05/22 01:42:47;;;;;;;7.83;4.40;;;;;;;;;;4958034;28;20202;-74
2022/05/22 01:45:14;;;;;;;6.70;4.10;;;;;;;;;;4963060;28;20195;-75
2022/05/22 01:47:40;;;;;;;5.57;3.97;;;;;;;;;;4964290;28;20261;-75
2022/05/22 01:50:06;;;;;;;6.33;4.40;;;;;;;;;;4964520;28;20202;-75
2022/05/22 01:52:32;;;;;;;6.73;4.23;;;;;;;;;;4950509;28;20644;-75
2022/05/22 01:54:58;;;;;;;6.43;4.63;;;;;;;;;;4974882;28;20197;-74
2022/05/22 01:57:24;;;;;;;6.43;3.97;;;;;;;;;;4948078;28;22260;-74
2022/05/22 01:59:50;;;;;;;9.67;4.50;;;;;;;;;;4971378;28;20217;-74
2022/05/22 02:02:16;;;;;;;7.03;4.40;;;;;;;;;;4965437;28;20186;-75
2022/05/22 02:04:42;;;;;;;6.80;4.10;;;;;;;;;;4966340;28;20720;-75
2022/05/22 02:09:53;;;;;;;5.37;4.10;;;;;;;;;;4962144;28;20679;-74
2022/05/22 02:12:19;;;;;;;7.10;4.60;;;;;;;;;;4967036;28;20191;-75
2022/05/22 02:14:45;;;;;;;6.90;4.33;;;;;;;;;;4971620;28;20186;-75
2022/05/22 02:17:10;;;;;;;7.93;4.90;;;;;;;;;;4972496;28;20630;-76
2022/05/22 02:19:36;;;;;;;9.00;4.53;;;;;;;;;;4962927;28;20229;-75
2022/05/22 02:22:02;;;;;;;10.20;5.50;;;;;;;;;;4968327;28;20197;-75
2022/05/22 02:24:28;;;;;;;6.27;4.03;;;;;;;;;;4959965;28;20191;-75
2022/05/22 02:26:54;;;;;;;6.50;4.40;;;;;;;;;;4966616;28;20186;-74
2022/05/22 02:29:21;;;;;;;7.30;4.97;;;;;;;;;;4972997;28;20199;-74
2022/05/22 02:31:47;;;;;;;5.10;4.30;;;;;;;;;;4965185;28;20201;-75
2022/05/22 02:34:13;;;;;;;8.73;4.63;;;;;;;;;;4973153;28;20193;-75
2022/05/22 02:36:39;;;;;;;7.33;4.50;;;;;;;;;;4964092;28;20194;-75
2022/05/22 02:39:05;;;;;;;5.50;4.60;;;;;;;;;;4969646;28;20616;-74
2022/05/22 02:41:31;;;;;;;6.47;4.63;;;;;;;;;;4951678;28;20174;-75
2022/05/22 02:43:57;;;;;;;8.37;5.10;;;;;;;;;;4968443;28;20222;-75
2022/05/22 02:46:24;;;;;;;5.93;4.50;;;;;;;;;;4968369;28;20217;-75
2022/05/22 02:48:50;;;;;;;8.87;4.80;;;;;;;;;;4961042;28;20244;-75
2022/05/22 02:51:17;;;;;;;5.57;4.40;;;;;;;;;;4968839;28;20283;-76
2022/05/22 02:53:43;;;;;;;7.33;4.67;;;;;;;;;;4976570;28;20552;-75
2022/05/22 02:56:09;;;;;;;6.70;4.40;;;;;;;;;;4972230;28;20205;-75
2022/05/22 02:58:35;;;;;;;5.90;4.30;;;;;;;;;;4972192;28;20314;-75
2022/05/22 03:01:01;;;;;;;5.10;4.60;;;;;;;;;;4972257;28;20197;-75
2022/05/22 03:03:27;;;;;;;6.77;5.20;;;;;;;;;;4968470;28;20619;-75
2022/05/22 03:08:37;;;;;;;6.00;4.43;;;;;;;;;;4970687;28;20221;-75
2022/05/22 03:11:06;;;;;;;7.90;4.83;;;;;;;;;;4973811;28;20190;-74
2022/05/22 03:13:32;;;;;;;8.60;5.10;;;;;;;;;;4973439;28;20182;-75
2022/05/22 03:15:58;;;;;;;6.70;5.00;;;;;;;;;;4967482;28;20193;-75
2022/05/22 03:18:24;;;;;;;6.50;4.73;;;;;;;;;;4968100;28;20186;-74
2022/05/22 03:20:50;;;;;;;7.13;4.73;;;;;;;;;;4973429;28;20585;-75
2022/05/22 03:23:16;;;;;;;7.50;4.77;;;;;;;;;;4966963;28;20198;-76
2022/05/22 03:25:42;;;;;;;8.17;4.87;;;;;;;;;;4945393;28;20217;-75
2022/05/22 03:28:08;;;;;;;6.80;4.97;;;;;;;;;;4965231;28;20187;-75
2022/05/22 03:30:34;;;;;;;6.50;4.90;;;;;;;;;;4969168;28;20237;-75
2022/05/22 03:33:00;;;;;;;6.67;4.67;;;;;;;;;;4948072;28;20294;-75
2022/05/22 03:35:26;;;;;;;8.27;4.50;;;;;;;;;;4964237;28;20201;-75
2022/05/22 03:37:52;;;;;;;5.67;4.80;;;;;;;;;;4972313;28;20199;-75
2022/05/22 03:40:18;;;;;;;5.87;5.20;;;;;;;;;;4978915;28;20203;-75
2022/05/22 03:42:44;;;;;;;8.83;5.20;;;;;;;;;;4971173;28;20198;-74
2022/05/22 03:45:10;;;;;;;6.27;4.83;;;;;;;;;;4970052;28;20186;-76
2022/05/22 03:47:38;;;;;;;10.20;5.17;;;;;;;;;;4967767;28;20217;-74
2022/05/22 03:50:05;;;;;;;8.63;5.17;;;;;;;;;;4973921;28;20205;-75
2022/05/22 03:52:34;;;;;;;9.30;5.00;;;;;;;;;;4982163;28;20242;-74
2022/05/22 03:55:00;;;;;;;6.43;4.60;;;;;;;;;;4974841;28;20324;-76
2022/05/22 03:57:26;;;;;;;7.33;4.90;;;;;;;;;;4957998;28;20199;-74
2022/05/22 03:59:52;;;;;;;7.57;5.00;;;;;;;;;;4983917;28;20264;-76
2022/05/22 04:02:18;;;;;;;6.17;4.97;;;;;;;;;;4973730;28;20629;-74
2022/05/22 04:04:44;;;;;;;8.43;4.80;;;;;;;;;;4971053;28;20798;-74
2022/05/22 04:07:10;;;;;;;5.37;4.87;;;;;;;;;;4974625;28;20196;-74
2022/05/22 04:09:36;;;;;;;5.90;4.47;;;;;;;;;;4970692;28;20519;-75
2022/05/22 04:12:05;;;;;;;6.67;4.73;;;;;;;;;;4972287;28;20269;-75
2022/05/22 04:14:31;;;;;;;8.53;5.00;;;;;;;;;;4976783;28;20209;-74
2022/05/22 04:16:57;;;;;;;6.77;4.70;;;;;;;;;;4978998;28;20659;-75
2022/05/22 04:19:23;;;;;;;6.93;4.90;;;;;;;;;;4970924;28;20220;-75
2022/05/22 04:21:49;;;;;;;6.07;5.00;;;;;;;;;;4965082;28;20201;-77
2022/05/22 04:27:03;;;;;;;5.93;5.10;;;;;;;;;;4983485;28;20279;-75
2022/05/22 04:29:30;;;;;;;6.30;5.10;;;;;;;;;;4973630;28;20187;-75
2022/05/22 04:31:56;;;;;;;6.07;5.33;;;;;;;;;;4968975;28;20190;-75
2022/05/22 04:34:22;;;;;;;7.80;4.57;;;;;;;;;;4972649;28;20732;-75
2022/05/22 04:36:48;;;;;;;7.97;4.97;;;;;;;;;;4966004;28;20183;-75
2022/05/22 04:39:14;;;;;;;5.73;5.00;;;;;;;;;;4969323;28;20214;-75
2022/05/22 04:41:40;;;;;;;5.43;4.60;;;;;;;;;;4986635;28;20194;-74
2022/05/22 04:44:06;;;;;;;7.57;4.73;;;;;;;;;;4972834;28;20186;-75
2022/05/22 04:46:32;;;;;;;7.27;4.97;;;;;;;;;;4972192;28;20230;-75
2022/05/22 04:48:58;;;;;;;6.17;5.53;;;;;;;;;;4974941;28;20198;-75
2022/05/22 04:51:24;;;;;;;9.37;4.80;;;;;;;;;;4969837;28;20190;-74
2022/05/22 04:53:50;;;;;;;5.40;4.90;;;;;;;;;;4976623;28;20679;-74
2022/05/22 04:56:16;;;;;;;8.03;4.93;;;;;;;;;;4977604;28;20396;-75
2022/05/22 04:58:42;;;;;;;6.23;5.20;;;;;;;;;;4980448;28;20571;-75
2022/05/22 05:01:08;;;;;;;7.17;4.90;;;;;;;;;;4972287;28;20186;-75
2022/05/22 05:03:34;;;;;;;7.03;5.10;;;;;;;;;;4952292;28;20243;-75
2022/05/22 05:06:01;;;;;;;7.73;5.37;;;;;;;;;;4974058;28;20182;-75
2022/05/22 05:08:27;;;;;;;6.77;5.30;;;;;;;;;;4975370;28;20584;-76
2022/05/22 05:10:53;;;;;;;8.30;5.10;;;;;;;;;;4978180;28;20245;-75
2022/05/22 05:13:19;;;;;;;9.47;5.20;;;;;;;;;;4971542;28;20190;-76
2022/05/22 05:15:45;;;;;;;6.43;4.47;;;;;;;;;;4956853;28;20829;-75
2022/05/22 05:18:12;;;;;;;5.43;4.93;;;;;;;;;;4968036;28;20191;-75
2022/05/22 05:20:38;;;;;;;6.03;5.13;;;;;;;;;;4949261;28;20211;-74
2022/05/22 05:23:04;;;;;;;8.23;4.80;;;;;;;;;;4961824;28;20189;-75
2022/05/22 05:25:30;;;;;;;6.17;4.93;;;;;;;;;;4950968;28;20779;-75
2022/05/22 05:27:56;;;;;;;6.03;5.00;;;;;;;;;;4965235;28;20452;-75
2022/05/22 05:30:22;;;;;;;6.03;4.70;;;;;;;;;;4974713;28;20655;-75
2022/05/22 05:32:48;;;;;;;7.33;4.50;;;;;;;;;;4966213;28;20191;-74
2022/05/22 05:35:14;;;;;;;5.60;4.93;;;;;;;;;;4966482;28;20196;-74
2022/05/22 05:37:40;;;;;;;6.67;4.83;;;;;;;;;;4949863;28;20640;-74
2022/05/22 05:40:07;;;;;;;5.57;4.93;;;;;;;;;;4963990;28;20691;-74
2022/05/22 05:42:33;;;;;;;5.87;5.17;;;;;;;;;;4945340;28;20179;-73
2022/05/22 05:44:59;;;;;;;7.53;4.97;;;;;;;;;;4964121;28;20199;-74
2022/05/22 05:47:25;;;;;;;6.20;5.33;;;;;;;;;;4962846;28;20611;-73
2022/05/22 05:49:51;;;;;;;8.57;5.03;;;;;;;;;;4965850;28;20293;-74
2022/05/22 05:52:17;;;;;;;7.37;5.37;;;;;;;;;;4960555;28;20613;-73
2022/05/22 05:54:43;;;;;;;5.80;4.67;;;;;;;;;;4965070;28;20198;-74
2022/05/22 05:57:13;;;;;;;6.03;5.10;;;;;;;;;;4966246;28;20190;-76
2022/05/22 05:59:38;;;;;;;9.50;5.40;;;;;;;;;;4967425;28;20664;-75
2022/05/22 06:02:04;;;;;;;6.87;5.13;;;;;;;;;;4976531;28;20191;-73
2022/05/22 06:04:30;;;;;;;8.77;5.23;;;;;;;;;;4963372;28;20243;-73
2022/05/22 06:06:56;;;;;;;9.27;5.50;;;;;;;;;;4962099;28;20256;-74
2022/05/22 06:09:22;;;;;;;6.57;5.43;;;;;;;;;;4970142;28;20249;-73
2022/05/22 06:11:48;;;;;;;8.43;5.60;;;;;;;;;;4970246;28;20229;-74
2022/05/22 06:14:16;;;;;;;9.00;6.13;;;;;;;;;;4964801;28;20625;-73
2022/05/22 06:16:42;;;;;;;12.87;5.97;;;;;;;;;;4964672;28;20460;-74
2022/05/22 06:19:07;;;;;;;8.63;5.50;;;;;;;;;;4943644;28;20214;-74
2022/05/22 06:21:33;;;;;;;10.40;5.30;;;;;;;;;;4945820;28;20213;-75
2022/05/22 06:23:59;;;;;;;9.17;6.30;;;;;;;;;;4962198;28;20693;-75
2022/05/22 06:26:25;;;;;;;9.03;6.43;;;;;;;;;;4936594;28;20187;-74
2022/05/22 06:28:51;;;;;;;8.90;6.10;;;;;;;;;;4962466;28;20252;-73
2022/05/22 06:31:17;;;;;;;9.07;6.00;;;;;;;;;;4966948;28;20214;-73
2022/05/22 06:33:44;;;;;;;9.63;6.33;;;;;;;;;;4953203;28;20353;-71
2022/05/22 06:36:10;;;;;;;10.40;6.53;;;;;;;;;;4959678;28;20194;-72
2022/05/22 06:41:21;;;;;;;11.23;6.60;;;;;;;;;;4962210;28;20577;-72
2022/05/22 06:43:49;;;;;;;8.43;6.63;;;;;;;;;;4950734;28;20226;-71
2022/05/22 06:46:15;;;;;;;8.50;6.50;;;;;;;;;;4964318;28;20182;-71
2022/05/22 06:48:41;;;;;;;9.00;6.60;;;;;;;;;;4969452;28;20245;-72
2022/05/22 06:51:07;;;;;;;8.10;6.17;;;;;;;;;;4972419;28;20205;-73
2022/05/22 06:53:33;;;;;;;10.37;6.57;;;;;;;;;;4969816;28;20625;-72
2022/05/22 06:55:59;;;;;;;7.23;6.50;;;;;;;;;;4965098;28;20210;-72
2022/05/22 06:58:25;;;;;;;8.73;7.10;;;;;;;;;;4972394;28;20182;-72
2022/05/22 07:00:52;;;;;;;7.60;6.30;;;;;;;;;;4977278;28;20214;-72
2022/05/22 07:03:18;;;;;;;6.73;6.03;;;;;;;;;;4973300;28;20650;-73
2022/05/22 07:05:44;;;;;;;13.03;6.60;;;;;;;;;;4973713;28;20190;-72
2022/05/22 07:08:10;;;;;;;9.30;7.00;;;;;;;;;;4972325;28;20190;-73
2022/05/22 07:13:20;;;;;;;6.73;5.20;;;;;;;;;;4974360;28;20278;-72
2022/05/22 07:15:46;;;;;;;8.60;5.83;;;;;;;;;;4973293;28;20286;-72
2022/05/22 07:18:12;;;;;;;8.85;5.35;;;;;;;;;;4978252;28;20298;-72
2022/05/22 07:20:38;;;;;;;8.18;5.63;;;;;;;;;;4974005;28;20217;-74
2022/05/22 07:23:04;;;;;;;8.25;5.22;;;;;;;;;;4972408;28;20208;-72
2022/05/22 07:25:30;;;;;;;9.27;5.55;;;;;;;;;;4973786;28;20676;-72
2022/05/22 07:27:56;;;;;;;7.63;5.72;;;;;;;;;;4974359;28;20222;-73
2022/05/22 07:30:22;;;;;;;10.65;5.45;;;;;;;;;;4971784;28;20186;-73
2022/05/22 07:32:48;;;;;;;7.07;5.38;;;;;;;;;;4972668;28;20202;-73
2022/05/22 07:35:14;;;;;;;9.52;5.43;;;;;;;;;;4970769;28;20224;-73
2022/05/22 07:37:40;;;;;;;11.90;5.55;;;;;;;;;;4974311;28;20187;-73
2022/05/22 07:40:06;;;;;;;7.70;5.15;;;;;;;;;;4970333;28;20904;-73
2022/05/22 07:42:32;;;;;;;8.13;5.47;;;;;;;;;;4966380;28;20198;-73
2022/05/22 07:44:58;;;;;;;8.88;5.97;;;;;;;;;;4976776;28;23178;-73
2022/05/22 07:47:24;;;;;;;11.68;6.32;;;;;;;;;;4974192;28;20195;-72
2022/05/22 07:52:38;;;;;;;8.02;6.03;;;;;;;;;;4973060;28;20248;-72
2022/05/22 07:55:04;;;;;;;7.13;5.55;;;;;;;;;;4977236;28;20257;-74
2022/05/22 07:57:30;;;;;;;9.65;6.43;;;;;;;;;;4951509;28;20546;-72
2022/05/22 07:59:56;;;;;;;8.77;6.18;;;;;;;;;;4978602;28;20482;-73
2022/05/22 08:02:22;;;;;;;10.10;6.65;;;;;;;;;;4967270;28;20191;-71
2022/05/22 08:04:48;;;;;;;7.82;5.80;;;;;;;;;;4955082;28;20865;-72
2022/05/22 08:07:14;;;;;;;9.73;6.55;;;;;;;;;;4980128;28;20183;-74
2022/05/22 08:09:40;;;;;;;11.02;6.90;;;;;;;;;;4973254;28;20183;-72
2022/05/22 08:12:06;;;;;;;8.80;6.50;;;;;;;;;;4983537;28;20191;-73
2022/05/22 08:14:32;;;;;;;8.18;6.03;;;;;;;;;;4971886;28;20201;-71
2022/05/22 08:16:58;;;;;;;12.25;6.60;;;;;;;;;;4972637;28;20262;-72
2022/05/22 08:19:25;;;;;;;8.18;5.63;;;;;;;;;;4974530;28;20206;-72
2022/05/22 08:21:50;;;;;;;10.15;6.63;;;;;;;;;;4972636;28;20193;-72
2022/05/22 08:24:16;;;;;;;9.63;6.20;;;;;;;;;;4972971;28;20195;-72
2022/05/22 08:26:42;;;;;;;10.15;6.03;;;;;;;;;;4967953;28;20760;-74
2022/05/22 08:29:08;;;;;;;8.18;5.57;;;;;;;;;;4979848;28;20308;-73
2022/05/22 08:31:34;;;;;;;11.75;6.35;;;;;;;;;;4975344;28;20245;-73
2022/05/22 08:34:00;;;;;;;9.88;6.05;;;;;;;;;;4976056;28;20648;-72
2022/05/22 08:36:26;;;;;;;9.02;6.53;;;;;;;;;;4964524;28;20199;-74
2022/05/22 08:38:52;;;;;;;9.60;6.13;;;;;;;;;;4964347;28;20561;-72
2022/05/22 08:41:22;;;;;;;9.27;5.72;;;;;;;;;;4974341;28;20198;-72
2022/05/22 08:43:50;;;;;;;13.63;5.90;;;;;;;;;;4975232;28;20580;-73
2022/05/22 08:46:24;;;;;;;9.75;6.00;;;;;;;;;;4974103;28;20191;-74
2022/05/22 08:48:57;;;;;;;9.57;5.93;;;;;;;;;;4978555;28;20854;-73
2022/05/22 08:51:49;;;;;;;9.07;5.80;;;;;;;;;;4971625;28;20551;-72
2022/05/22 08:54:27;;;;;;;8.45;5.80;;;;;;;;;;4974414;28;20214;-73
2022/05/22 08:59:39;;;;;;;10.75;6.28;;;;;;;;;;4974620;28;20853;-73
2022/05/22 09:02:06;;;;;;;9.63;6.13;;;;;;;;;;4958848;28;20183;-74
2022/05/22 09:04:39;;;;;;;9.02;5.60;;;;;;;;;;4958093;28;20226;-72
2022/05/22 09:07:21;;;;;;;10.77;5.85;;;;;;;;;;4968863;28;20306;-74
2022/05/22 09:09:49;;;;;;;9.82;5.95;;;;;;;;;;4961128;28;20261;-73
2022/05/22 09:12:28;;;;;;;9.10;5.55;;;;;;;;;;4974433;28;20201;-75
2022/05/22 09:15:03;;;;;;;9.30;4.93;;;;;;;;;;4972933;28;20186;-73
2022/05/22 09:17:31;;;;;;;11.82;4.63;;;;;;;;;;4976423;28;20288;-74
2022/05/22 09:20:00;;;;;;;9.98;4.80;;;;;;;;;;4968901;28;20707;-73
2022/05/22 09:22:46;;;;;;;9.65;5.22;;;;;;;;;;4971157;28;20190;-73
2022/05/22 09:25:21;;;;;;;7.57;4.75;;;;;;;;;;4972081;28;20244;-73
2022/05/22 09:27:50;;;;;;;6.72;4.45;;;;;;;;;;4970289;28;20304;-75
2022/05/22 09:30:19;;;;;;;7.43;4.40;;;;;;;;;;4956669;28;20203;-73
2022/05/22 09:32:44;;;;;;;8.98;4.80;;;;;;;;;;4948294;28;20194;-74
2022/05/22 09:35:13;;;;;;;8.70;4.60;;;;;;;;;;4965216;28;20567;-73
2022/05/22 09:37:58;;;;;;;6.35;4.07;;;;;;;;;;4965949;28;20280;-73
2022/05/22 09:40:24;;;;;;;8.48;4.22;;;;;;;;;;4965125;28;20269;-73
2022/05/22 09:43:09;;;;;;;7.85;4.47;;;;;;;;;;4969162;28;20190;-73
2022/05/22 09:45:42;;;;;;;6.25;4.18;;;;;;;;;;4968227;28;20602;-73
2022/05/22 09:48:26;;;;;;;7.75;4.47;;;;;;;;;;4973325;28;20175;-72
2022/05/22 09:50:58;;;;;;;9.88;4.68;;;;;;;;;;4969707;28;20202;-73
2022/05/22 09:53:43;;;;;;;11.65;4.60;;;;;;;;;;4971644;28;20222;-73
2022/05/22 09:56:28;;;;;;;8.70;4.95;;;;;;;;;;4972560;28;20265;-73
2022/05/22 09:59:02;;;;;;;5.25;3.55;;;;;;;;;;4972264;28;21700;-72
2022/05/22 10:01:34;;;;;;;5.93;3.40;;;;;;;;;;4972914;28;20241;-72
2022/05/22 10:04:00;;;;;;;7.78;4.28;;;;;;;;;;4967267;28;20237;-72
2022/05/22 10:06:29;;;;;;;6.80;3.78;;;;;;;;;;4972872;28;20193;-72
2022/05/22 10:08:59;;;;;;;7.97;3.67;;;;;;;;;;4972615;28;20720;-73
2022/05/22 10:11:45;;;;;;;8.50;4.05;;;;;;;;;;4967009;28;20182;-72
2022/05/22 10:14:11;;;;;;;6.75;4.40;;;;;;;;;;4972922;28;20198;-72
2022/05/22 10:16:43;;;;;;;8.60;4.10;;;;;;;;;;4971318;28;20191;-72
2022/05/22 10:19:27;;;;;;;8.48;3.92;;;;;;;;;;4972411;28;20292;-72
2022/05/22 10:22:10;;;;;;;8.43;4.10;;;;;;;;;;4973058;28;20194;-72
2022/05/22 10:24:48;;;;;;;11.18;4.60;;;;;;;;;;4968181;28;20210;-73
2022/05/22 10:27:33;;;;;;;6.97;3.92;;;;;;;;;;4977062;28;20600;-72
2022/05/22 10:30:06;;;;;;;7.35;4.32;;;;;;;;;;4967303;28;20241;-72
2022/05/22 10:32:33;;;;;;;6.90;3.60;;;;;;;;;;4974221;28;20194;-73
2022/05/22 10:35:07;;;;;;;6.63;3.80;;;;;;;;;;4972394;28;20724;-73
2022/05/22 10:37:39;;;;;;;8.52;4.20;;;;;;;;;;4973091;28;20240;-72
2022/05/22 10:40:05;;;;;;;11.45;4.53;;;;;;;;;;4968297;28;20289;-72
2022/05/22 10:42:49;;;;;;;7.40;4.53;;;;;;;;;;4972530;28;20197;-71
2022/05/22 10:45:21;;;;;;;7.72;4.35;;;;;;;;;;4969146;28;20175;-71
2022/05/22 10:47:47;;;;;;;6.25;3.92;;;;;;;;;;4955647;28;20183;-72
2022/05/22 10:50:24;;;;;;;6.15;4.15;;;;;;;;;;4971830;28;20186;-73
2022/05/22 10:52:50;;;;;;;8.15;3.63;;;;;;;;;;4976173;28;20185;-74
2022/05/22 10:55:18;;;;;;;6.03;3.80;;;;;;;;;;4973343;28;20651;-72
2022/05/22 10:57:53;;;;;;;8.18;4.05;;;;;;;;;;4972262;28;20597;-73
2022/05/22 11:00:19;;;;;;;8.95;4.22;;;;;;;;;;4972152;28;20272;-72
2022/05/22 11:02:45;;;;;;;6.30;3.80;;;;;;;;;;4971292;28;20211;-72
2022/05/22 11:05:15;;;;;;;6.22;3.88;;;;;;;;;;4976633;28;20209;-73
2022/05/22 11:07:45;;;;;;;6.05;4.00;;;;;;;;;;4976425;28;20206;-73
2022/05/22 11:10:33;;;;;;;7.90;3.55;;;;;;;;;;4977023;28;20238;-73
2022/05/22 11:13:00;;;;;;;9.05;3.85;;;;;;;;;;4968510;28;20668;-73
2022/05/22 11:15:27;;;;;;;7.30;3.67;;;;;;;;;;4952159;28;20221;-72
2022/05/22 11:18:22;;;;;;;8.13;4.25;;;;;;;;;;4955245;28;20272;-73
2022/05/22 11:21:05;;;;;;;6.90;3.75;;;;;;;;;;4972314;28;20313;-73
2022/05/22 11:23:40;;;;;;;6.80;4.28;;;;;;;;;;4972621;28;20329;-72
2022/05/22 11:26:25;;;;;;;7.85;3.38;;;;;;;;;;4970286;28;20198;-73
2022/05/22 11:28:55;;;;;;;6.68;3.92;;;;;;;;;;4974988;28;20182;-73
2022/05/22 11:31:30;;;;;;;8.05;3.80;;;;;;;;;;4970003;28;20333;-73
2022/05/22 11:34:05;;;;;;;7.43;3.92;;;;;;;;;;4971709;28;20225;-73
2022/05/22 11:36:34;;;;;;;7.53;3.63;;;;;;;;;;4981373;28;20187;-72
2022/05/22 11:39:09;;;;;;;7.50;3.85;;;;;;;;;;4974385;28;20617;-73
2022/05/22 11:41:36;;;;;;;5.72;3.78;;;;;;;;;;4974210;28;20174;-73
2022/05/22 11:44:18;;;;;;;8.57;3.95;;;;;;;;;;4975840;28;20208;-73
2022/05/22 11:46:47;;;;;;;6.55;3.90;;;;;;;;;;4974996;28;20182;-73
2022/05/22 11:49:26;;;;;;;8.88;3.97;;;;;;;;;;4972554;28;20609;-74
2022/05/22 11:52:01;;;;;;;5.43;3.92;;;;;;;;;;4969354;28;20186;-72
2022/05/22 11:54:27;;;;;;;6.82;3.72;;;;;;;;;;4973092;28;20194;-73
2022/05/22 11:57:02;;;;;;;8.10;3.70;;;;;;;;;;4977161;28;20268;-74
2022/05/22 11:59:38;;;;;;;8.00;4.63;;;;;;;;;;4972817;28;20329;-73
2022/05/22 12:02:27;;;;;;;7.32;3.45;;;;;;;;;;4975568;28;20210;-73
2022/05/22 12:05:13;;;;;;;8.50;3.67;;;;;;;;;;4970607;28;20217;-73
2022/05/22 12:07:45;;;;;;;5.05;3.55;;;;;;;;;;4980083;28;20179;-73
2022/05/22 12:10:17;;;;;;;7.38;3.35;;;;;;;;;;4977069;28;20652;-73
2022/05/22 12:12:52;;;;;;;7.68;3.50;;;;;;;;;;4971343;28;20205;-73
2022/05/22 12:15:33;;;;;;;6.63;3.65;;;;;;;;;;4976092;28;20182;-74
2022/05/22 12:18:05;;;;;;;6.03;3.72;;;;;;;;;;4983829;28;20187;-72
2022/05/22 12:20:45;;;;;;;8.73;4.05;;;;;;;;;;4977379;28;20548;-73
2022/05/22 12:23:32;;;;;;;7.20;3.35;;;;;;;;;;4975653;28;20186;-72
2022/05/22 12:25:59;;;;;;;6.00;3.50;;;;;;;;;;4972014;28;20222;-73
2022/05/22 12:28:38;;;;;;;7.32;3.55;;;;;;;;;;4975726;28;20233;-74
2022/05/22 12:31:06;;;;;;;8.00;3.47;;;;;;;;;;4971641;28;20275;-73
2022/05/22 12:33:32;;;;;;;6.50;3.10;;;;;;;;;;4972972;28;20210;-73
2022/05/22 12:35:58;;;;;;;8.70;4.50;;;;;;;;;;4966860;28;20205;-73
2022/05/22 12:38:24;;;;;;;7.22;3.95;;;;;;;;;;4974166;28;20182;-73
2022/05/22 12:40:53;;;;;;;5.70;3.40;;;;;;;;;;4974029;28;20203;-73
2022/05/22 12:43:22;;;;;;;9.20;4.50;;;;;;;;;;4974787;28;20224;-72
2022/05/22 12:45:58;;;;;;;6.47;3.72;;;;;;;;;;4977408;28;20186;-73
2022/05/22 12:48:28;;;;;;;7.25;3.55;;;;;;;;;;4976422;28;20566;-72
2022/05/22 12:51:14;;;;;;;9.35;4.35;;;;;;;;;;4978985;28;20186;-72
2022/05/22 12:53:41;;;;;;;5.88;3.58;;;;;;;;;;4960683;28;20245;-74
2022/05/22 12:56:19;;;;;;;9.18;3.30;;;;;;;;;;4966713;28;20547;-73
2022/05/22 12:58:47;;;;;;;5.18;3.22;;;;;;;;;;4964829;28;20241;-74
2022/05/22 13:01:31;;;;;;;6.13;3.40;;;;;;;;;;4969835;28;20594;-73
2022/05/22 13:04:08;;;;;;;9.40;3.47;;;;;;;;;;4966408;28;20249;-73
2022/05/22 13:06:34;;;;;;;6.43;3.25;;;;;;;;;;4974411;28;20194;-73
2022/05/22 13:09:05;;;;;;;4.80;3.30;;;;;;;;;;4971701;28;20190;-73
2022/05/22 13:11:57;;;;;;;9.30;3.63;;;;;;;;;;4974634;28;21454;-73
2022/05/22 13:14:43;;;;;;;6.40;2.95;;;;;;;;;;4968634;28;20227;-73
2022/05/22 13:17:09;;;;;;;5.88;2.90;;;;;;;;;;4978798;28;20295;-72
2022/05/22 13:19:35;;;;;;;7.40;3.30;;;;;;;;;;4956667;28;20207;-73
2022/05/22 13:22:11;;;;;;;5.90;3.08;;;;;;;;;;4965902;28;20206;-74
2022/05/22 13:24:38;;;;;;;5.88;2.97;;;;;;;;;;4968962;28;20217;-73
2022/05/22 13:27:24;;;;;;;6.35;3.25;;;;;;;;;;4968897;28;20327;-74
2022/05/22 13:29:54;;;;;;;4.78;3.10;;;;;;;;;;4969392;28;20281;-73
2022/05/22 13:32:34;;;;;;;9.00;3.20;;;;;;;;;;4970008;28;20247;-73
2022/05/22 13:35:00;;;;;;;4.55;2.80;;;;;;;;;;4954783;28;20188;-74
2022/05/22 13:37:30;;;;;;;6.45;3.03;;;;;;;;;;4974778;28;20200;-71
2022/05/22 13:40:02;;;;;;;3.40;2.20;;;;;;;;;;4967560;28;20207;-72
2022/05/22 13:42:52;;;;;;;4.10;2.58;;;;;;;;;;5042777;28;20309;-58
2022/05/22 13:45:33;;;;;;;4.95;2.58;;;;;;;;;;5024684;28;20197;-58
2022/05/22 13:48:17;;;;;;;5.38;2.60;;;;;;;;;;5018499;28;20647;-59
2022/05/22 13:54:13;;;;;;;4.00;2.53;;;;;;;;;;5028668;28;20195;-58
2022/05/22 13:56:40;;;;;;;9.55;6.72;;;;;;;;;;5001470;28;20205;-59
2022/05/22 13:59:08;;;;;;;7.68;3.17;;;;;;;;;;5029209;28;20536;-59
2022/05/22 14:01:34;;;;;;;6.43;2.80;;;;;;;;;;5024067;28;20200;-59
2022/05/22 14:04:00;;;;;;;4.07;2.40;;;;;;;;;;5023903;28;20185;-59
2022/05/22 14:06:27;;;;;;;5.63;2.42;;;;;;;;;;5001256;28;20220;-58
2022/05/22 14:08:54;;;;;;;6.00;3.05;;;;;;;;;;5016859;28;20192;-58
2022/05/22 14:11:25;;;;;;;6.75;3.05;;;;;;;;;;5015998;28;20187;-59
2022/05/22 14:13:52;;;;;;;3.72;2.47;;;;;;;;;;5018090;28;20591;-59
2022/05/22 14:16:26;;;;;;;4.68;2.40;;;;;;;;;;5023501;28;20184;-58
2022/05/22 14:19:05;;;;;;;4.00;2.58;;;;;;;;;;5024991;28;20255;-59
2022/05/22 14:21:35;;;;;;;4.03;2.45;;;;;;;;;;5019293;28;20209;-59
2022/05/22 14:26:47;;;;;;;4.25;2.45;;;;;;;;;;5019062;28;20189;-60
2022/05/22 14:29:14;;;;;;;4.82;2.55;;;;;;;;;;5007729;28;20173;-60
2022/05/22 14:31:43;;;;;;;4.95;2.97;;;;;;;;;;5014649;28;20711;-59
2022/05/22 14:34:09;;;;;;;4.20;2.55;;;;;;;;;;5018865;28;20196;-59
2022/05/22 14:36:35;;;;;;;5.32;2.65;;;;;;;;;;5017633;28;20248;-59
2022/05/22 14:39:01;;;;;;;3.63;2.35;;;;;;;;;;5022311;28;20188;-59
2022/05/22 14:41:30;;;;;;;4.53;2.72;;;;;;;;;;5022402;28;20283;-60
2022/05/22 14:43:56;;;;;;;4.70;2.53;;;;;;;;;;5006519;28;20692;-59
2022/05/22 14:46:41;;;;;;;5.68;2.50;;;;;;;;;;5026711;28;20652;-59
2022/05/22 14:49:12;;;;;;;3.75;2.25;;;;;;;;;;5032121;28;20672;-59
2022/05/22 14:51:39;;;;;;;4.25;2.40;;;;;;;;;;5021834;28;20192;-59
2022/05/22 14:54:25;;;;;;;6.15;2.88;;;;;;;;;;5002552;28;20392;-59
2022/05/22 14:56:58;;;;;;;8.35;3.10;;;;;;;;;;5029110;28;20204;-60
2022/05/22 14:59:28;;;;;;;5.40;3.40;;;;;;;;;;5025740;28;20192;-60
2022/05/22 15:01:55;;;;;;;4.50;2.35;;;;;;;;;;4999503;28;20595;-59
2022/05/22 15:04:22;;;;;;;5.50;2.88;;;;;;;;;;5014629;28;20739;-60
2022/05/22 15:06:56;;;;;;;3.28;2.97;;;;;;;;;;5017174;28;20196;-60
2022/05/22 15:09:26;;;;;;;4.00;2.72;;;;;;;;;;5027203;28;20254;-60
2022/05/22 15:11:52;;;;;;;4.10;2.75;;;;;;;;;;5025480;28;20199;-59
2022/05/22 15:14:26;;;;;;;3.75;3.03;;;;;;;;;;5022333;28;20200;-59
2022/05/22 15:16:55;;;;;;;5.53;3.08;;;;;;;;;;5025432;28;20196;-60
2022/05/22 15:27:55;;;;;;;4.55;2.78;;;;;;;;;;5018822;28;20204;-58
2022/05/22 15:30:23;;;;;;;7.85;2.97;;;;;;;;;;5014175;28;20298;-59
2022/05/22 15:32:49;;;;;;;7.53;3.40;;;;;;;;;;5024137;28;20215;-59